sensor_id;sensor_type;location;lat;lon;timestamp;P1;durP1;ratioP1;P2;durP2;ratioP2
34080;SDS011;20358;50.272;19.026;2022-08-02T00:00:42;10.17;;;9.27;;
34080;SDS011;20358;50.272;19.026;2022-08-02T00:03:51;9.80;;;8.83;;
34080;SDS011;20358;50.272;19.026;2022-08-02T00:06:57;10.13;;;9.13;;
34080;SDS011;20358;50.272;19.026;2022-08-02T00:10:04;10.57;;;9.47;;
34080;SDS011;20358;50.272;19.026;2022-08-02T00:13:12;10.87;;;9.77;;
34080;SDS011;20358;50.272;19.026;2022-08-02T00:16:18;10.43;;;9.07;;
34080;SDS011;20358;50.272;19.026;2022-08-02T00:19:43;10.83;;;9.80;;
34080;SDS011;20358;50.272;19.026;2022-08-02T00:22:48;10.87;;;9.77;;
34080;SDS011;20358;50.272;19.026;2022-08-02T00:25:55;13.40;;;12.00;;
34080;SDS011;20358;50.272;19.026;2022-08-02T00:29:02;13.93;;;12.53;;
34080;SDS011;20358;50.272;19.026;2022-08-02T00:32:09;17.23;;;15.57;;
34080;SDS011;20358;50.272;19.026;2022-08-02T00:35:17;23.57;;;21.27;;
34080;SDS011;20358;50.272;19.026;2022-08-02T00:38:23;23.53;;;21.03;;
34080;SDS011;20358;50.272;19.026;2022-08-02T00:41:29;26.03;;;23.53;;
34080;SDS011;20358;50.272;19.026;2022-08-02T00:44:36;31.13;;;27.87;;
34080;SDS011;20358;50.272;19.026;2022-08-02T00:47:41;29.40;;;26.43;;
34080;SDS011;20358;50.272;19.026;2022-08-02T00:50:51;27.47;;;24.83;;
34080;SDS011;20358;50.272;19.026;2022-08-02T00:53:57;25.40;;;22.77;;
34080;SDS011;20358;50.272;19.026;2022-08-02T00:57:05;23.90;;;21.37;;
34080;SDS011;20358;50.272;19.026;2022-08-02T01:00:11;25.63;;;22.87;;
34080;SDS011;20358;50.272;19.026;2022-08-02T01:03:24;27.40;;;24.77;;
34080;SDS011;20358;50.272;19.026;2022-08-02T01:06:33;24.80;;;22.43;;
34080;SDS011;20358;50.272;19.026;2022-08-02T01:09:40;20.20;;;18.10;;
34080;SDS011;20358;50.272;19.026;2022-08-02T01:12:46;17.90;;;16.20;;
34080;SDS011;20358;50.272;19.026;2022-08-02T01:15:54;20.27;;;18.07;;
34080;SDS011;20358;50.272;19.026;2022-08-02T01:19:08;25.87;;;23.17;;
34080;SDS011;20358;50.272;19.026;2022-08-02T01:22:45;31.60;;;26.50;;
34080;SDS011;20358;50.272;19.026;2022-08-02T01:26:11;37.63;;;32.73;;
34080;SDS011;20358;50.272;19.026;2022-08-02T01:29:36;41.47;;;30.70;;
34080;SDS011;20358;50.272;19.026;2022-08-02T01:32:48;34.67;;;25.27;;
34080;SDS011;20358;50.272;19.026;2022-08-02T01:35:57;25.00;;;21.40;;
34080;SDS011;20358;50.272;19.026;2022-08-02T01:39:08;29.67;;;22.20;;
34080;SDS011;20358;50.272;19.026;2022-08-02T01:42:33;29.47;;;24.33;;
34080;SDS011;20358;50.272;19.026;2022-08-02T01:45:44;35.27;;;25.50;;
34080;SDS011;20358;50.272;19.026;2022-08-02T01:48:52;33.10;;;25.40;;
34080;SDS011;20358;50.272;19.026;2022-08-02T01:52:00;36.60;;;29.20;;
34080;SDS011;20358;50.272;19.026;2022-08-02T01:55:34;40.10;;;32.37;;
34080;SDS011;20358;50.272;19.026;2022-08-02T01:59:02;44.33;;;32.73;;
34080;SDS011;20358;50.272;19.026;2022-08-02T02:02:10;41.17;;;31.67;;
34080;SDS011;20358;50.272;19.026;2022-08-02T02:05:22;39.07;;;30.90;;
34080;SDS011;20358;50.272;19.026;2022-08-02T02:08:31;36.50;;;29.73;;
34080;SDS011;20358;50.272;19.026;2022-08-02T02:11:41;21.40;;;19.13;;
34080;SDS011;20358;50.272;19.026;2022-08-02T02:15:08;23.20;;;18.70;;
34080;SDS011;20358;50.272;19.026;2022-08-02T02:18:19;19.07;;;17.07;;
34080;SDS011;20358;50.272;19.026;2022-08-02T02:21:27;27.63;;;21.43;;
34080;SDS011;20358;50.272;19.026;2022-08-02T02:24:37;25.73;;;21.33;;
34080;SDS011;20358;50.272;19.026;2022-08-02T02:27:45;35.27;;;28.03;;
34080;SDS011;20358;50.272;19.026;2022-08-02T02:30:57;30.57;;;25.07;;
34080;SDS011;20358;50.272;19.026;2022-08-02T02:34:10;29.00;;;22.70;;
34080;SDS011;20358;50.272;19.026;2022-08-02T02:37:20;20.10;;;17.83;;
34080;SDS011;20358;50.272;19.026;2022-08-02T02:40:27;17.73;;;15.80;;
34080;SDS011;20358;50.272;19.026;2022-08-02T02:43:34;22.40;;;18.20;;
34080;SDS011;20358;50.272;19.026;2022-08-02T02:46:42;28.90;;;23.07;;
34080;SDS011;20358;50.272;19.026;2022-08-02T02:49:52;36.50;;;27.83;;
34080;SDS011;20358;50.272;19.026;2022-08-02T02:52:59;35.97;;;26.83;;
34080;SDS011;20358;50.272;19.026;2022-08-02T02:56:08;33.20;;;25.87;;
34080;SDS011;20358;50.272;19.026;2022-08-02T02:59:14;33.50;;;26.07;;
34080;SDS011;20358;50.272;19.026;2022-08-02T03:02:21;32.77;;;27.53;;
34080;SDS011;20358;50.272;19.026;2022-08-02T03:05:30;31.10;;;25.90;;
34080;SDS011;20358;50.272;19.026;2022-08-02T03:08:36;32.37;;;25.17;;
34080;SDS011;20358;50.272;19.026;2022-08-02T03:11:42;34.37;;;28.63;;
34080;SDS011;20358;50.272;19.026;2022-08-02T03:14:49;40.10;;;29.50;;
34080;SDS011;20358;50.272;19.026;2022-08-02T03:17:55;35.23;;;27.47;;
34080;SDS011;20358;50.272;19.026;2022-08-02T03:21:06;34.40;;;26.03;;
34080;SDS011;20358;50.272;19.026;2022-08-02T03:24:14;32.93;;;26.20;;
34080;SDS011;20358;50.272;19.026;2022-08-02T03:27:30;35.30;;;26.47;;
34080;SDS011;20358;50.272;19.026;2022-08-02T03:30:35;30.03;;;24.37;;
34080;SDS011;20358;50.272;19.026;2022-08-02T03:33:42;30.60;;;25.33;;
34080;SDS011;20358;50.272;19.026;2022-08-02T03:36:53;30.87;;;22.73;;
34080;SDS011;20358;50.272;19.026;2022-08-02T03:40:04;31.23;;;25.67;;
34080;SDS011;20358;50.272;19.026;2022-08-02T03:43:12;32.13;;;25.83;;
34080;SDS011;20358;50.272;19.026;2022-08-02T03:46:20;30.00;;;24.83;;
34080;SDS011;20358;50.272;19.026;2022-08-02T03:49:27;30.37;;;23.83;;
34080;SDS011;20358;50.272;19.026;2022-08-02T03:52:38;26.97;;;21.10;;
34080;SDS011;20358;50.272;19.026;2022-08-02T03:55:45;25.80;;;19.70;;
34080;SDS011;20358;50.272;19.026;2022-08-02T03:59:04;23.63;;;19.00;;
34080;SDS011;20358;50.272;19.026;2022-08-02T04:02:11;22.43;;;18.67;;
34080;SDS011;20358;50.272;19.026;2022-08-02T04:05:18;20.37;;;17.60;;
34080;SDS011;20358;50.272;19.026;2022-08-02T04:08:26;20.57;;;18.10;;
34080;SDS011;20358;50.272;19.026;2022-08-02T04:11:39;21.57;;;19.30;;
34080;SDS011;20358;50.272;19.026;2022-08-02T04:14:45;21.60;;;19.30;;
34080;SDS011;20358;50.272;19.026;2022-08-02T04:17:52;25.43;;;21.47;;
34080;SDS011;20358;50.272;19.026;2022-08-02T04:21:01;27.23;;;23.43;;
34080;SDS011;20358;50.272;19.026;2022-08-02T04:24:13;26.60;;;22.97;;
34080;SDS011;20358;50.272;19.026;2022-08-02T04:27:24;24.93;;;20.30;;
34080;SDS011;20358;50.272;19.026;2022-08-02T04:30:52;23.87;;;20.50;;
34080;SDS011;20358;50.272;19.026;2022-08-02T04:33:59;24.07;;;18.93;;
34080;SDS011;20358;50.272;19.026;2022-08-02T04:37:05;21.83;;;19.17;;
34080;SDS011;20358;50.272;19.026;2022-08-02T04:40:14;19.23;;;17.23;;
34080;SDS011;20358;50.272;19.026;2022-08-02T04:43:21;23.20;;;17.13;;
34080;SDS011;20358;50.272;19.026;2022-08-02T04:46:26;24.80;;;18.73;;
34080;SDS011;20358;50.272;19.026;2022-08-02T04:49:33;18.77;;;16.77;;
34080;SDS011;20358;50.272;19.026;2022-08-02T04:52:38;18.27;;;16.50;;
34080;SDS011;20358;50.272;19.026;2022-08-02T04:55:50;16.77;;;15.07;;
34080;SDS011;20358;50.272;19.026;2022-08-02T04:58:55;17.23;;;15.00;;
34080;SDS011;20358;50.272;19.026;2022-08-02T05:02:03;17.17;;;15.37;;
34080;SDS011;20358;50.272;19.026;2022-08-02T05:05:09;17.83;;;16.03;;
34080;SDS011;20358;50.272;19.026;2022-08-02T05:08:15;16.40;;;14.77;;
34080;SDS011;20358;50.272;19.026;2022-08-02T05:11:24;18.80;;;16.10;;
34080;SDS011;20358;50.272;19.026;2022-08-02T05:14:38;18.40;;;16.57;;
34080;SDS011;20358;50.272;19.026;2022-08-02T05:17:43;18.47;;;16.43;;
34080;SDS011;20358;50.272;19.026;2022-08-02T05:20:50;17.20;;;14.93;;
34080;SDS011;20358;50.272;19.026;2022-08-02T05:23:59;19.70;;;17.80;;
34080;SDS011;20358;50.272;19.026;2022-08-02T05:27:08;20.10;;;16.97;;
34080;SDS011;20358;50.272;19.026;2022-08-02T05:30:22;17.23;;;15.47;;
34080;SDS011;20358;50.272;19.026;2022-08-02T05:33:28;19.50;;;17.50;;
34080;SDS011;20358;50.272;19.026;2022-08-02T05:36:35;19.33;;;17.27;;
34080;SDS011;20358;50.272;19.026;2022-08-02T05:39:44;21.00;;;18.70;;
34080;SDS011;20358;50.272;19.026;2022-08-02T05:42:59;21.20;;;18.93;;
34080;SDS011;20358;50.272;19.026;2022-08-02T05:46:07;25.13;;;19.57;;
34080;SDS011;20358;50.272;19.026;2022-08-02T05:49:13;21.30;;;19.07;;
34080;SDS011;20358;50.272;19.026;2022-08-02T05:52:20;21.50;;;18.83;;
34080;SDS011;20358;50.272;19.026;2022-08-02T05:55:32;22.40;;;20.03;;
34080;SDS011;20358;50.272;19.026;2022-08-02T05:58:42;23.13;;;20.70;;
34080;SDS011;20358;50.272;19.026;2022-08-02T06:01:55;23.83;;;20.23;;
34080;SDS011;20358;50.272;19.026;2022-08-02T06:05:04;24.17;;;21.20;;
34080;SDS011;20358;50.272;19.026;2022-08-02T06:08:15;25.47;;;21.67;;
34080;SDS011;20358;50.272;19.026;2022-08-02T06:11:26;25.20;;;22.47;;
34080;SDS011;20358;50.272;19.026;2022-08-02T06:14:41;25.73;;;23.00;;
34080;SDS011;20358;50.272;19.026;2022-08-02T06:17:52;26.90;;;22.50;;
34080;SDS011;20358;50.272;19.026;2022-08-02T06:21:00;24.97;;;22.27;;
34080;SDS011;20358;50.272;19.026;2022-08-02T06:24:28;22.60;;;19.63;;
34080;SDS011;20358;50.272;19.026;2022-08-02T06:27:34;21.43;;;19.07;;
34080;SDS011;20358;50.272;19.026;2022-08-02T06:30:45;19.83;;;17.80;;
34080;SDS011;20358;50.272;19.026;2022-08-02T06:33:51;18.93;;;17.10;;
34080;SDS011;20358;50.272;19.026;2022-08-02T06:36:58;19.53;;;15.50;;
34080;SDS011;20358;50.272;19.026;2022-08-02T06:40:14;18.40;;;16.47;;
34080;SDS011;20358;50.272;19.026;2022-08-02T06:43:33;19.93;;;17.83;;
34080;SDS011;20358;50.272;19.026;2022-08-02T06:46:47;16.47;;;14.77;;
34080;SDS011;20358;50.272;19.026;2022-08-02T06:50:13;15.63;;;13.97;;
34080;SDS011;20358;50.272;19.026;2022-08-02T06:53:19;16.57;;;13.57;;
34080;SDS011;20358;50.272;19.026;2022-08-02T06:56:25;14.20;;;12.70;;
34080;SDS011;20358;50.272;19.026;2022-08-02T06:59:30;14.33;;;12.37;;
34080;SDS011;20358;50.272;19.026;2022-08-02T07:02:39;14.03;;;12.63;;
34080;SDS011;20358;50.272;19.026;2022-08-02T07:05:45;13.67;;;12.37;;
34080;SDS011;20358;50.272;19.026;2022-08-02T07:08:52;15.03;;;13.47;;
34080;SDS011;20358;50.272;19.026;2022-08-02T07:12:17;14.20;;;12.80;;
34080;SDS011;20358;50.272;19.026;2022-08-02T07:15:23;15.47;;;13.97;;
34080;SDS011;20358;50.272;19.026;2022-08-02T07:18:32;14.53;;;13.00;;
34080;SDS011;20358;50.272;19.026;2022-08-02T07:21:39;15.90;;;14.30;;
34080;SDS011;20358;50.272;19.026;2022-08-02T07:25:02;16.20;;;14.57;;
34080;SDS011;20358;50.272;19.026;2022-08-02T07:28:10;15.20;;;13.90;;
34080;SDS011;20358;50.272;19.026;2022-08-02T07:31:25;18.43;;;16.03;;
34080;SDS011;20358;50.272;19.026;2022-08-02T07:34:34;15.83;;;14.20;;
34080;SDS011;20358;50.272;19.026;2022-08-02T07:37:42;15.10;;;13.60;;
34080;SDS011;20358;50.272;19.026;2022-08-02T07:41:03;14.20;;;12.90;;
34080;SDS011;20358;50.272;19.026;2022-08-02T07:44:09;16.70;;;15.10;;
34080;SDS011;20358;50.272;19.026;2022-08-02T07:47:15;18.07;;;16.27;;
34080;SDS011;20358;50.272;19.026;2022-08-02T07:50:23;16.67;;;15.17;;
34080;SDS011;20358;50.272;19.026;2022-08-02T07:53:30;17.50;;;15.80;;
34080;SDS011;20358;50.272;19.026;2022-08-02T07:56:55;16.70;;;15.00;;
34080;SDS011;20358;50.272;19.026;2022-08-02T08:00:03;15.33;;;13.70;;
34080;SDS011;20358;50.272;19.026;2022-08-02T08:03:13;15.57;;;13.97;;
34080;SDS011;20358;50.272;19.026;2022-08-02T08:06:22;15.13;;;13.63;;
34080;SDS011;20358;50.272;19.026;2022-08-02T08:09:29;14.63;;;13.13;;
34080;SDS011;20358;50.272;19.026;2022-08-02T08:12:36;15.00;;;13.57;;
34080;SDS011;20358;50.272;19.026;2022-08-02T08:15:42;14.10;;;12.80;;
34080;SDS011;20358;50.272;19.026;2022-08-02T08:18:53;13.97;;;12.77;;
34080;SDS011;20358;50.272;19.026;2022-08-02T08:22:02;13.40;;;12.10;;
34080;SDS011;20358;50.272;19.026;2022-08-02T08:25:09;13.68;;;12.38;;
34080;SDS011;20358;50.272;19.026;2022-08-02T08:28:14;12.40;;;11.30;;
34080;SDS011;20358;50.272;19.026;2022-08-02T08:31:21;11.93;;;10.73;;
34080;SDS011;20358;50.272;19.026;2022-08-02T08:34:27;13.38;;;12.27;;
34080;SDS011;20358;50.272;19.026;2022-08-02T08:37:37;12.27;;;11.13;;
34080;SDS011;20358;50.272;19.026;2022-08-02T08:40:43;12.10;;;11.02;;
34080;SDS011;20358;50.272;19.026;2022-08-02T08:43:49;14.10;;;11.57;;
34080;SDS011;20358;50.272;19.026;2022-08-02T08:46:55;11.65;;;10.55;;
34080;SDS011;20358;50.272;19.026;2022-08-02T08:50:07;12.68;;;10.25;;
34080;SDS011;20358;50.272;19.026;2022-08-02T08:53:41;11.95;;;10.85;;
34080;SDS011;20358;50.272;19.026;2022-08-02T08:56:52;11.40;;;10.40;;
34080;SDS011;20358;50.272;19.026;2022-08-02T08:59:59;10.50;;;9.48;;
34080;SDS011;20358;50.272;19.026;2022-08-02T09:03:06;12.90;;;10.00;;
34080;SDS011;20358;50.272;19.026;2022-08-02T09:06:12;9.88;;;8.95;;
34080;SDS011;20358;50.272;19.026;2022-08-02T09:09:21;9.57;;;8.68;;
34080;SDS011;20358;50.272;19.026;2022-08-02T09:12:26;9.40;;;8.60;;
34080;SDS011;20358;50.272;19.026;2022-08-02T09:15:32;10.00;;;8.85;;
34080;SDS011;20358;50.272;19.026;2022-08-02T09:18:38;9.52;;;8.63;;
34080;SDS011;20358;50.272;19.026;2022-08-02T09:21:47;9.45;;;8.65;;
34080;SDS011;20358;50.272;19.026;2022-08-02T09:24:57;9.60;;;8.60;;
34080;SDS011;20358;50.272;19.026;2022-08-02T09:28:04;9.27;;;8.48;;
34080;SDS011;20358;50.272;19.026;2022-08-02T09:31:12;9.40;;;8.57;;
34080;SDS011;20358;50.272;19.026;2022-08-02T09:34:20;10.82;;;9.82;;
34080;SDS011;20358;50.272;19.026;2022-08-02T09:37:27;10.48;;;9.52;;
34080;SDS011;20358;50.272;19.026;2022-08-02T09:40:37;10.27;;;9.43;;
34080;SDS011;20358;50.272;19.026;2022-08-02T09:43:45;9.52;;;8.55;;
34080;SDS011;20358;50.272;19.026;2022-08-02T09:47:12;8.68;;;7.85;;
34080;SDS011;20358;50.272;19.026;2022-08-02T09:50:19;7.80;;;7.20;;
34080;SDS011;20358;50.272;19.026;2022-08-02T09:53:25;8.13;;;7.43;;
34080;SDS011;20358;50.272;19.026;2022-08-02T09:56:45;8.25;;;7.28;;
34080;SDS011;20358;50.272;19.026;2022-08-02T09:59:55;9.30;;;8.48;;
34080;SDS011;20358;50.272;19.026;2022-08-02T10:03:12;8.95;;;8.18;;
34080;SDS011;20358;50.272;19.026;2022-08-02T10:06:24;8.90;;;7.90;;
34080;SDS011;20358;50.272;19.026;2022-08-02T10:09:30;7.75;;;7.10;;
34080;SDS011;20358;50.272;19.026;2022-08-02T10:12:50;8.50;;;7.80;;
34080;SDS011;20358;50.272;19.026;2022-08-02T10:15:57;9.43;;;8.00;;
34080;SDS011;20358;50.272;19.026;2022-08-02T10:19:04;7.82;;;7.22;;
34080;SDS011;20358;50.272;19.026;2022-08-02T10:22:11;11.38;;;10.25;;
34080;SDS011;20358;50.272;19.026;2022-08-02T10:25:21;10.82;;;9.82;;
34080;SDS011;20358;50.272;19.026;2022-08-02T10:28:30;8.90;;;8.00;;
34080;SDS011;20358;50.272;19.026;2022-08-02T10:31:40;10.32;;;9.25;;
34080;SDS011;20358;50.272;19.026;2022-08-02T10:34:49;11.13;;;10.13;;
34080;SDS011;20358;50.272;19.026;2022-08-02T10:38:04;14.70;;;13.25;;
34080;SDS011;20358;50.272;19.026;2022-08-02T10:41:13;12.02;;;10.02;;
34080;SDS011;20358;50.272;19.026;2022-08-02T10:44:24;8.90;;;8.20;;
34080;SDS011;20358;50.272;19.026;2022-08-02T10:47:31;8.23;;;7.40;;
34080;SDS011;20358;50.272;19.026;2022-08-02T10:54:07;10.43;;;9.63;;
34080;SDS011;20358;50.272;19.026;2022-08-02T10:57:15;9.60;;;6.72;;
34080;SDS011;20358;50.272;19.026;2022-08-02T11:00:26;9.40;;;8.50;;
34080;SDS011;20358;50.272;19.026;2022-08-02T11:03:33;11.40;;;10.45;;
34080;SDS011;20358;50.272;19.026;2022-08-02T11:10:28;7.70;;;7.07;;
34080;SDS011;20358;50.272;19.026;2022-08-02T11:17:12;9.27;;;8.43;;
34080;SDS011;20358;50.272;19.026;2022-08-02T11:20:19;8.93;;;8.02;;
34080;SDS011;20358;50.272;19.026;2022-08-02T11:23:33;8.20;;;7.50;;
34080;SDS011;20358;50.272;19.026;2022-08-02T11:26:46;8.68;;;7.85;;
34080;SDS011;20358;50.272;19.026;2022-08-02T11:29:52;9.88;;;7.72;;
34080;SDS011;20358;50.272;19.026;2022-08-02T11:33:01;8.35;;;7.55;;
34080;SDS011;20358;50.272;19.026;2022-08-02T11:36:08;7.45;;;6.70;;
34080;SDS011;20358;50.272;19.026;2022-08-02T11:39:14;7.70;;;6.93;;
34080;SDS011;20358;50.272;19.026;2022-08-02T11:42:21;7.20;;;6.45;;
34080;SDS011;20358;50.272;19.026;2022-08-02T11:45:35;7.38;;;6.50;;
34080;SDS011;20358;50.272;19.026;2022-08-02T11:48:44;7.88;;;6.60;;
34080;SDS011;20358;50.272;19.026;2022-08-02T11:51:51;7.80;;;6.80;;
34080;SDS011;20358;50.272;19.026;2022-08-02T11:55:05;7.50;;;6.78;;
34080;SDS011;20358;50.272;19.026;2022-08-02T11:58:12;7.32;;;6.72;;
34080;SDS011;20358;50.272;19.026;2022-08-02T12:01:18;9.18;;;8.38;;
34080;SDS011;20358;50.272;19.026;2022-08-02T12:04:26;9.32;;;8.43;;
34080;SDS011;20358;50.272;19.026;2022-08-02T12:07:35;7.35;;;6.75;;
34080;SDS011;20358;50.272;19.026;2022-08-02T12:10:47;7.38;;;6.68;;
34080;SDS011;20358;50.272;19.026;2022-08-02T12:13:54;7.20;;;6.53;;
34080;SDS011;20358;50.272;19.026;2022-08-02T12:17:02;6.70;;;6.10;;
34080;SDS011;20358;50.272;19.026;2022-08-02T12:20:36;6.65;;;6.00;;
34080;SDS011;20358;50.272;19.026;2022-08-02T12:23:42;7.63;;;6.70;;
34080;SDS011;20358;50.272;19.026;2022-08-02T12:27:03;7.50;;;6.72;;
34080;SDS011;20358;50.272;19.026;2022-08-02T12:30:09;8.43;;;6.10;;
34080;SDS011;20358;50.272;19.026;2022-08-02T12:33:18;6.78;;;6.18;;
34080;SDS011;20358;50.272;19.026;2022-08-02T12:36:27;5.80;;;5.30;;
34080;SDS011;20358;50.272;19.026;2022-08-02T12:39:35;6.85;;;6.25;;
34080;SDS011;20358;50.272;19.026;2022-08-02T12:42:46;6.20;;;5.53;;
34080;SDS011;20358;50.272;19.026;2022-08-02T12:45:54;6.82;;;5.15;;
34080;SDS011;20358;50.272;19.026;2022-08-02T12:49:12;6.60;;;4.88;;
34080;SDS011;20358;50.272;19.026;2022-08-02T12:52:23;7.13;;;5.88;;
34080;SDS011;20358;50.272;19.026;2022-08-02T12:55:28;5.88;;;5.38;;
34080;SDS011;20358;50.272;19.026;2022-08-02T12:58:55;5.80;;;4.95;;
34080;SDS011;20358;50.272;19.026;2022-08-02T13:02:03;5.43;;;4.95;;
34080;SDS011;20358;50.272;19.026;2022-08-02T13:05:10;5.40;;;4.90;;
34080;SDS011;20358;50.272;19.026;2022-08-02T13:08:19;7.18;;;6.13;;
34080;SDS011;20358;50.272;19.026;2022-08-02T13:11:25;6.50;;;5.53;;
34080;SDS011;20358;50.272;19.026;2022-08-02T13:14:32;6.97;;;6.28;;
34080;SDS011;20358;50.272;19.026;2022-08-02T13:17:43;6.03;;;4.90;;
34080;SDS011;20358;50.272;19.026;2022-08-02T13:20:49;6.32;;;5.18;;
34080;SDS011;20358;50.272;19.026;2022-08-02T13:23:58;4.70;;;4.18;;
34080;SDS011;20358;50.272;19.026;2022-08-02T13:27:05;5.35;;;4.32;;
34080;SDS011;20358;50.272;19.026;2022-08-02T13:30:11;8.63;;;4.63;;
34080;SDS011;20358;50.272;19.026;2022-08-02T13:33:16;4.88;;;4.45;;
34080;SDS011;20358;50.272;19.026;2022-08-02T13:36:23;5.10;;;4.70;;
34080;SDS011;20358;50.272;19.026;2022-08-02T13:39:32;4.30;;;3.90;;
34080;SDS011;20358;50.272;19.026;2022-08-02T13:42:38;4.72;;;4.28;;
34080;SDS011;20358;50.272;19.026;2022-08-02T13:45:43;4.18;;;3.78;;
34080;SDS011;20358;50.272;19.026;2022-08-02T13:48:50;6.03;;;5.30;;
34080;SDS011;20358;50.272;19.026;2022-08-02T13:51:56;5.05;;;4.35;;
34080;SDS011;20358;50.272;19.026;2022-08-02T13:55:06;5.85;;;4.80;;
34080;SDS011;20358;50.272;19.026;2022-08-02T13:58:13;5.35;;;4.03;;
34080;SDS011;20358;50.272;19.026;2022-08-02T14:01:19;5.47;;;4.28;;
34080;SDS011;20358;50.272;19.026;2022-08-02T14:04:26;5.30;;;4.82;;
34080;SDS011;20358;50.272;19.026;2022-08-02T14:07:33;5.97;;;5.38;;
34080;SDS011;20358;50.272;19.026;2022-08-02T14:10:41;5.80;;;4.82;;
34080;SDS011;20358;50.272;19.026;2022-08-02T14:13:48;6.38;;;4.50;;
34080;SDS011;20358;50.272;19.026;2022-08-02T14:16:53;5.28;;;4.03;;
34080;SDS011;20358;50.272;19.026;2022-08-02T14:20:03;4.68;;;4.28;;
34080;SDS011;20358;50.272;19.026;2022-08-02T14:23:16;4.50;;;4.20;;
34080;SDS011;20358;50.272;19.026;2022-08-02T14:26:45;5.72;;;4.20;;
34080;SDS011;20358;50.272;19.026;2022-08-02T14:29:52;5.03;;;4.63;;
34080;SDS011;20358;50.272;19.026;2022-08-02T14:32:59;4.50;;;4.10;;
34080;SDS011;20358;50.272;19.026;2022-08-02T14:36:05;4.85;;;4.40;;
34080;SDS011;20358;50.272;19.026;2022-08-02T14:39:11;4.95;;;4.55;;
34080;SDS011;20358;50.272;19.026;2022-08-02T14:42:19;4.78;;;4.35;;
34080;SDS011;20358;50.272;19.026;2022-08-02T14:45:26;6.82;;;4.38;;
34080;SDS011;20358;50.272;19.026;2022-08-02T14:48:41;4.95;;;4.55;;
34080;SDS011;20358;50.272;19.026;2022-08-02T14:51:48;6.43;;;4.55;;
34080;SDS011;20358;50.272;19.026;2022-08-02T14:54:54;5.45;;;4.95;;
34080;SDS011;20358;50.272;19.026;2022-08-02T14:58:03;5.97;;;4.47;;
34080;SDS011;20358;50.272;19.026;2022-08-02T15:01:09;4.50;;;4.10;;
34080;SDS011;20358;50.272;19.026;2022-08-02T15:04:15;5.20;;;3.85;;
34080;SDS011;20358;50.272;19.026;2022-08-02T15:07:20;4.05;;;3.65;;
34080;SDS011;20358;50.272;19.026;2022-08-02T15:10:27;6.30;;;4.28;;
34080;SDS011;20358;50.272;19.026;2022-08-02T15:13:36;5.68;;;4.68;;
34080;SDS011;20358;50.272;19.026;2022-08-02T15:16:44;4.47;;;4.18;;
34080;SDS011;20358;50.272;19.026;2022-08-02T15:19:58;4.68;;;4.20;;
34080;SDS011;20358;50.272;19.026;2022-08-02T15:23:24;4.35;;;4.00;;
34080;SDS011;20358;50.272;19.026;2022-08-02T15:26:39;4.93;;;4.53;;
34080;SDS011;20358;50.272;19.026;2022-08-02T15:29:48;6.00;;;4.75;;
34080;SDS011;20358;50.272;19.026;2022-08-02T15:33:02;6.32;;;4.20;;
34080;SDS011;20358;50.272;19.026;2022-08-02T15:36:08;4.80;;;4.40;;
34080;SDS011;20358;50.272;19.026;2022-08-02T15:39:14;4.47;;;3.65;;
34080;SDS011;20358;50.272;19.026;2022-08-02T15:42:21;3.83;;;3.50;;
34080;SDS011;20358;50.272;19.026;2022-08-02T15:45:34;6.50;;;4.38;;
34080;SDS011;20358;50.272;19.026;2022-08-02T15:48:41;3.95;;;3.60;;
34080;SDS011;20358;50.272;19.026;2022-08-02T15:51:46;4.47;;;3.63;;
34080;SDS011;20358;50.272;19.026;2022-08-02T15:54:53;3.78;;;3.47;;
34080;SDS011;20358;50.272;19.026;2022-08-02T15:58:08;4.18;;;3.30;;
34080;SDS011;20358;50.272;19.026;2022-08-02T16:01:21;4.43;;;3.50;;
34080;SDS011;20358;50.272;19.026;2022-08-02T16:04:40;3.70;;;3.40;;
34080;SDS011;20358;50.272;19.026;2022-08-02T16:07:46;3.55;;;3.00;;
34080;SDS011;20358;50.272;19.026;2022-08-02T16:10:52;3.30;;;3.00;;
34080;SDS011;20358;50.272;19.026;2022-08-02T16:13:59;2.95;;;2.75;;
34080;SDS011;20358;50.272;19.026;2022-08-02T16:17:07;3.60;;;3.30;;
34080;SDS011;20358;50.272;19.026;2022-08-02T16:20:14;3.92;;;3.47;;
34080;SDS011;20358;50.272;19.026;2022-08-02T16:23:19;4.10;;;3.70;;
34080;SDS011;20358;50.272;19.026;2022-08-02T16:26:46;4.43;;;3.28;;
34080;SDS011;20358;50.272;19.026;2022-08-02T16:29:51;3.80;;;3.50;;
34080;SDS011;20358;50.272;19.026;2022-08-02T16:33:01;7.15;;;3.70;;
34080;SDS011;20358;50.272;19.026;2022-08-02T16:36:07;4.13;;;3.72;;
34080;SDS011;20358;50.272;19.026;2022-08-02T16:39:20;3.70;;;3.40;;
34080;SDS011;20358;50.272;19.026;2022-08-02T16:42:26;3.60;;;3.30;;
34080;SDS011;20358;50.272;19.026;2022-08-02T16:45:34;4.07;;;3.40;;
34080;SDS011;20358;50.272;19.026;2022-08-02T16:48:42;3.72;;;3.42;;
34080;SDS011;20358;50.272;19.026;2022-08-02T16:51:52;3.72;;;3.30;;
34080;SDS011;20358;50.272;19.026;2022-08-02T16:54:58;3.40;;;3.10;;
34080;SDS011;20358;50.272;19.026;2022-08-02T16:58:12;3.30;;;2.95;;
34080;SDS011;20358;50.272;19.026;2022-08-02T17:01:19;4.13;;;3.45;;
34080;SDS011;20358;50.272;19.026;2022-08-02T17:04:32;3.92;;;3.63;;
34080;SDS011;20358;50.272;19.026;2022-08-02T17:07:38;4.93;;;3.38;;
34080;SDS011;20358;50.272;19.026;2022-08-02T17:11:04;3.63;;;3.33;;
34080;SDS011;20358;50.272;19.026;2022-08-02T17:14:10;4.60;;;3.63;;
34080;SDS011;20358;50.272;19.026;2022-08-02T17:17:17;4.32;;;3.92;;
34080;SDS011;20358;50.272;19.026;2022-08-02T17:20:37;4.65;;;4.25;;
34080;SDS011;20358;50.272;19.026;2022-08-02T17:23:43;4.88;;;4.38;;
34080;SDS011;20358;50.272;19.026;2022-08-02T17:27:07;5.00;;;4.60;;
34080;SDS011;20358;50.272;19.026;2022-08-02T17:30:17;5.00;;;4.60;;
34080;SDS011;20358;50.272;19.026;2022-08-02T17:33:27;5.45;;;4.82;;
34080;SDS011;20358;50.272;19.026;2022-08-02T17:36:37;5.63;;;5.00;;
34080;SDS011;20358;50.272;19.026;2022-08-02T17:39:43;5.38;;;4.88;;
34080;SDS011;20358;50.272;19.026;2022-08-02T17:42:53;6.65;;;5.45;;
34080;SDS011;20358;50.272;19.026;2022-08-02T17:45:59;5.75;;;5.10;;
34080;SDS011;20358;50.272;19.026;2022-08-02T17:49:09;5.57;;;5.05;;
34080;SDS011;20358;50.272;19.026;2022-08-02T17:52:24;5.75;;;4.55;;
34080;SDS011;20358;50.272;19.026;2022-08-02T17:55:50;5.05;;;4.65;;
34080;SDS011;20358;50.272;19.026;2022-08-02T17:58:57;5.35;;;4.70;;
34080;SDS011;20358;50.272;19.026;2022-08-02T18:02:22;5.28;;;4.80;;
34080;SDS011;20358;50.272;19.026;2022-08-02T18:05:28;5.18;;;4.78;;
34080;SDS011;20358;50.272;19.026;2022-08-02T18:08:44;5.32;;;4.82;;
34080;SDS011;20358;50.272;19.026;2022-08-02T18:11:52;6.65;;;5.55;;
34080;SDS011;20358;50.272;19.026;2022-08-02T18:14:59;6.07;;;5.57;;
34080;SDS011;20358;50.272;19.026;2022-08-02T18:18:14;6.60;;;5.45;;
34080;SDS011;20358;50.272;19.026;2022-08-02T18:21:31;5.80;;;5.30;;
34080;SDS011;20358;50.272;19.026;2022-08-02T18:24:40;5.75;;;5.20;;
34080;SDS011;20358;50.272;19.026;2022-08-02T18:27:46;7.90;;;5.05;;
34080;SDS011;20358;50.272;19.026;2022-08-02T18:30:52;5.47;;;4.97;;
34080;SDS011;20358;50.272;19.026;2022-08-02T18:33:59;4.78;;;4.38;;
34080;SDS011;20358;50.272;19.026;2022-08-02T18:37:06;4.93;;;4.53;;
34080;SDS011;20358;50.272;19.026;2022-08-02T18:40:16;5.65;;;4.88;;